sensor_id;sensor_type;location;lat;lon;timestamp;P1;durP1;ratioP1;P2;durP2;ratioP2
46339;SDS011;47273;49.274;8.708;2022-11-11T04:32:44;29.50;;;26.80;;
46339;SDS011;47273;49.274;8.708;2022-11-11T04:35:11;29.92;;;27.13;;
46339;SDS011;47273;49.274;8.708;2022-11-11T04:37:45;30.17;;;27.38;;
46339;SDS011;47273;49.274;8.708;2022-11-11T04:40:13;29.85;;;27.08;;
46339;SDS011;47273;49.274;8.708;2022-11-11T04:43:18;31.27;;;28.23;;
46339;SDS011;47273;49.274;8.708;2022-11-11T04:45:43;31.05;;;27.80;;
46339;SDS011;47273;49.274;8.708;2022-11-11T04:48:09;29.70;;;27.00;;
46339;SDS011;47273;49.274;8.708;2022-11-11T04:50:40;31.15;;;28.00;;
46339;SDS011;47273;49.274;8.708;2022-11-11T04:53:08;36.42;;;30.63;;
46339;SDS011;47273;49.274;8.708;2022-11-11T04:55:37;44.60;;;31.50;;
46339;SDS011;47273;49.274;8.708;2022-11-11T04:58:23;40.75;;;32.13;;
46339;SDS011;47273;49.274;8.708;2022-11-11T05:03:22;39.45;;;32.25;;
46339;SDS011;47273;49.274;8.708;2022-11-11T05:05:48;41.17;;;31.45;;
46339;SDS011;47273;49.274;8.708;2022-11-11T05:11:19;37.83;;;32.03;;
46339;SDS011;47273;49.274;8.708;2022-11-11T05:13:46;40.53;;;32.00;;
46339;SDS011;47273;49.274;8.708;2022-11-11T05:16:32;37.30;;;30.58;;
46339;SDS011;47273;49.274;8.708;2022-11-11T05:19:19;37.28;;;29.48;;
46339;SDS011;47273;49.274;8.708;2022-11-11T05:22:25;33.58;;;27.92;;
46339;SDS011;47273;49.274;8.708;2022-11-11T05:24:49;31.55;;;27.55;;
46339;SDS011;47273;49.274;8.708;2022-11-11T05:27:34;30.08;;;26.83;;
46339;SDS011;47273;49.274;8.708;2022-11-11T05:30:00;32.25;;;26.83;;
46339;SDS011;47273;49.274;8.708;2022-11-11T05:32:26;30.08;;;26.98;;
46339;SDS011;47273;49.274;8.708;2022-11-11T05:34:52;30.02;;;27.13;;
46339;SDS011;47273;49.274;8.708;2022-11-11T05:37:18;29.58;;;26.48;;
46339;SDS011;47273;49.274;8.708;2022-11-11T05:39:44;29.70;;;26.63;;
46339;SDS011;47273;49.274;8.708;2022-11-11T05:42:10;29.58;;;26.67;;
46339;SDS011;47273;49.274;8.708;2022-11-11T05:44:36;30.05;;;27.25;;
46339;SDS011;47273;49.274;8.708;2022-11-11T05:47:02;30.58;;;27.58;;
46339;SDS011;47273;49.274;8.708;2022-11-11T05:49:28;29.25;;;26.45;;
46339;SDS011;47273;49.274;8.708;2022-11-11T05:51:54;29.02;;;26.15;;
46339;SDS011;47273;49.274;8.708;2022-11-11T05:54:20;28.00;;;25.05;;
46339;SDS011;47273;49.274;8.708;2022-11-11T05:56:47;28.83;;;25.95;;
46339;SDS011;47273;49.274;8.708;2022-11-11T05:59:13;28.92;;;25.83;;
46339;SDS011;47273;49.274;8.708;2022-11-11T06:01:38;32.17;;;26.10;;
46339;SDS011;47273;49.274;8.708;2022-11-11T06:04:04;28.33;;;25.52;;
46339;SDS011;47273;49.274;8.708;2022-11-11T06:06:31;28.80;;;25.90;;
46339;SDS011;47273;49.274;8.708;2022-11-11T06:08:58;30.38;;;27.20;;
46339;SDS011;47273;49.274;8.708;2022-11-11T06:11:23;27.90;;;25.27;;
46339;SDS011;47273;49.274;8.708;2022-11-11T06:13:50;27.58;;;24.83;;
46339;SDS011;47273;49.274;8.708;2022-11-11T06:16:15;28.58;;;25.77;;
46339;SDS011;47273;49.274;8.708;2022-11-11T06:18:41;27.02;;;24.63;;
46339;SDS011;47273;49.274;8.708;2022-11-11T06:21:07;33.15;;;25.98;;
46339;SDS011;47273;49.274;8.708;2022-11-11T06:23:33;27.85;;;25.25;;
46339;SDS011;47273;49.274;8.708;2022-11-11T06:25:59;27.17;;;24.77;;
46339;SDS011;47273;49.274;8.708;2022-11-11T06:28:37;27.95;;;25.55;;
46339;SDS011;47273;49.274;8.708;2022-11-11T06:31:03;29.08;;;26.38;;
46339;SDS011;47273;49.274;8.708;2022-11-11T06:33:31;28.77;;;25.90;;
46339;SDS011;47273;49.274;8.708;2022-11-11T06:35:58;29.00;;;26.35;;
46339;SDS011;47273;49.274;8.708;2022-11-11T06:38:24;27.92;;;25.30;;
46339;SDS011;47273;49.274;8.708;2022-11-11T06:40:49;28.45;;;25.75;;
46339;SDS011;47273;49.274;8.708;2022-11-11T06:43:15;28.10;;;25.60;;
46339;SDS011;47273;49.274;8.708;2022-11-11T06:45:41;28.80;;;26.00;;
46339;SDS011;47273;49.274;8.708;2022-11-11T06:48:07;27.70;;;25.20;;
46339;SDS011;47273;49.274;8.708;2022-11-11T06:50:32;28.38;;;25.77;;
46339;SDS011;47273;49.274;8.708;2022-11-11T06:55:32;27.60;;;25.10;;
46339;SDS011;47273;49.274;8.708;2022-11-11T06:58:08;27.60;;;25.00;;
46339;SDS011;47273;49.274;8.708;2022-11-11T07:00:38;26.88;;;24.45;;
46339;SDS011;47273;49.274;8.708;2022-11-11T07:03:04;26.80;;;24.30;;
46339;SDS011;47273;49.274;8.708;2022-11-11T07:05:31;26.30;;;24.10;;
46339;SDS011;47273;49.274;8.708;2022-11-11T07:08:01;28.08;;;25.42;;
46339;SDS011;47273;49.274;8.708;2022-11-11T07:10:35;28.17;;;25.50;;
46339;SDS011;47273;49.274;8.708;2022-11-11T07:13:03;28.67;;;25.83;;
46339;SDS011;47273;49.274;8.708;2022-11-11T07:15:29;27.33;;;24.90;;
46339;SDS011;47273;49.274;8.708;2022-11-11T07:17:56;28.80;;;25.85;;
46339;SDS011;47273;49.274;8.708;2022-11-11T07:20:22;27.73;;;25.13;;
46339;SDS011;47273;49.274;8.708;2022-11-11T07:22:48;28.00;;;25.10;;
46339;SDS011;47273;49.274;8.708;2022-11-11T07:25:13;27.30;;;24.90;;
46339;SDS011;47273;49.274;8.708;2022-11-11T07:27:39;28.05;;;25.55;;
46339;SDS011;47273;49.274;8.708;2022-11-11T07:30:06;28.52;;;25.95;;
46339;SDS011;47273;49.274;8.708;2022-11-11T07:32:33;27.67;;;25.25;;
46339;SDS011;47273;49.274;8.708;2022-11-11T07:34:59;28.23;;;25.70;;
46339;SDS011;47273;49.274;8.708;2022-11-11T07:37:25;31.85;;;28.42;;
46339;SDS011;47273;49.274;8.708;2022-11-11T07:39:51;42.60;;;34.42;;
46339;SDS011;47273;49.274;8.708;2022-11-11T07:42:18;40.25;;;35.42;;
46339;SDS011;47273;49.274;8.708;2022-11-11T07:44:44;45.10;;;35.53;;
46339;SDS011;47273;49.274;8.708;2022-11-11T07:47:10;39.67;;;32.55;;
46339;SDS011;47273;49.274;8.708;2022-11-11T07:49:36;38.45;;;30.75;;
46339;SDS011;47273;49.274;8.708;2022-11-11T07:52:01;31.45;;;28.13;;
46339;SDS011;47273;49.274;8.708;2022-11-11T07:54:27;29.63;;;26.83;;
46339;SDS011;47273;49.274;8.708;2022-11-11T07:56:53;28.85;;;26.02;;
46339;SDS011;47273;49.274;8.708;2022-11-11T07:59:19;29.48;;;26.73;;
46339;SDS011;47273;49.274;8.708;2022-11-11T08:01:44;28.52;;;25.92;;
46339;SDS011;47273;49.274;8.708;2022-11-11T08:04:10;29.58;;;26.83;;
46339;SDS011;47273;49.274;8.708;2022-11-11T08:06:36;29.17;;;26.55;;
46339;SDS011;47273;49.274;8.708;2022-11-11T08:09:02;30.85;;;27.90;;
46339;SDS011;47273;49.274;8.708;2022-11-11T08:11:27;31.80;;;28.70;;
46339;SDS011;47273;49.274;8.708;2022-11-11T08:14:11;32.92;;;29.75;;
46339;SDS011;47273;49.274;8.708;2022-11-11T08:16:37;32.78;;;29.77;;
46339;SDS011;47273;49.274;8.708;2022-11-11T08:19:03;34.28;;;30.90;;
46339;SDS011;47273;49.274;8.708;2022-11-11T08:21:28;36.22;;;32.63;;
46339;SDS011;47273;49.274;8.708;2022-11-11T08:23:54;40.35;;;35.95;;
46339;SDS011;47273;49.274;8.708;2022-11-11T08:26:20;57.15;;;48.13;;
46339;SDS011;47273;49.274;8.708;2022-11-11T08:28:47;53.65;;;47.58;;
46339;SDS011;47273;49.274;8.708;2022-11-11T08:31:13;223.98;;;84.40;;
46339;SDS011;47273;49.274;8.708;2022-11-11T08:33:39;95.68;;;59.40;;
46339;SDS011;47273;49.274;8.708;2022-11-11T08:36:05;53.65;;;42.00;;
46339;SDS011;47273;49.274;8.708;2022-11-11T08:38:32;34.50;;;30.98;;
46339;SDS011;47273;49.274;8.708;2022-11-11T08:40:59;32.50;;;29.33;;
46339;SDS011;47273;49.274;8.708;2022-11-11T08:43:26;33.92;;;30.35;;
46339;SDS011;47273;49.274;8.708;2022-11-11T08:45:52;33.90;;;30.35;;
46339;SDS011;47273;49.274;8.708;2022-11-11T08:48:18;31.80;;;28.42;;
46339;SDS011;47273;49.274;8.708;2022-11-11T08:50:43;34.13;;;28.83;;
46339;SDS011;47273;49.274;8.708;2022-11-11T08:53:09;30.08;;;27.25;;
46339;SDS011;47273;49.274;8.708;2022-11-11T08:55:35;31.52;;;28.40;;
46339;SDS011;47273;49.274;8.708;2022-11-11T08:58:02;30.67;;;27.40;;
46339;SDS011;47273;49.274;8.708;2022-11-11T09:00:29;31.88;;;28.77;;
46339;SDS011;47273;49.274;8.708;2022-11-11T09:03:02;31.25;;;28.05;;
46339;SDS011;47273;49.274;8.708;2022-11-11T09:05:29;29.58;;;26.50;;
46339;SDS011;47273;49.274;8.708;2022-11-11T09:07:55;29.83;;;26.92;;
46339;SDS011;47273;49.274;8.708;2022-11-11T09:10:24;30.52;;;27.42;;
46339;SDS011;47273;49.274;8.708;2022-11-11T09:12:54;30.13;;;27.42;;
46339;SDS011;47273;49.274;8.708;2022-11-11T09:15:21;38.22;;;31.38;;
46339;SDS011;47273;49.274;8.708;2022-11-11T09:17:46;53.63;;;42.72;;
46339;SDS011;47273;49.274;8.708;2022-11-11T09:20:12;60.92;;;46.90;;
46339;SDS011;47273;49.274;8.708;2022-11-11T09:22:44;61.85;;;46.10;;
46339;SDS011;47273;49.274;8.708;2022-11-11T09:25:11;40.28;;;35.58;;
46339;SDS011;47273;49.274;8.708;2022-11-11T09:27:37;35.80;;;32.13;;
46339;SDS011;47273;49.274;8.708;2022-11-11T09:30:03;36.20;;;32.40;;
46339;SDS011;47273;49.274;8.708;2022-11-11T09:32:30;39.05;;;34.88;;
46339;SDS011;47273;49.274;8.708;2022-11-11T09:34:56;40.42;;;33.00;;
46339;SDS011;47273;49.274;8.708;2022-11-11T09:37:22;35.63;;;31.00;;
46339;SDS011;47273;49.274;8.708;2022-11-11T09:39:48;33.20;;;29.70;;
46339;SDS011;47273;49.274;8.708;2022-11-11T09:42:24;33.75;;;30.13;;
46339;SDS011;47273;49.274;8.708;2022-11-11T09:50:28;40.13;;;30.55;;
46339;SDS011;47273;49.274;8.708;2022-11-11T09:53:02;38.50;;;31.05;;
46339;SDS011;47273;49.274;8.708;2022-11-11T09:55:51;39.25;;;29.45;;
46339;SDS011;47273;49.274;8.708;2022-11-11T09:58:27;38.95;;;30.15;;
46339;SDS011;47273;49.274;8.708;2022-11-11T10:01:13;43.28;;;31.83;;
46339;SDS011;47273;49.274;8.708;2022-11-11T10:03:45;39.15;;;31.42;;
46339;SDS011;47273;49.274;8.708;2022-11-11T10:06:16;36.95;;;30.00;;
46339;SDS011;47273;49.274;8.708;2022-11-11T10:08:47;37.95;;;29.77;;
46339;SDS011;47273;49.274;8.708;2022-11-11T10:13:59;36.83;;;32.72;;
46339;SDS011;47273;49.274;8.708;2022-11-11T10:19:24;44.90;;;37.35;;
46339;SDS011;47273;49.274;8.708;2022-11-11T10:21:53;39.50;;;34.83;;
46339;SDS011;47273;49.274;8.708;2022-11-11T10:24:34;34.42;;;31.05;;
46339;SDS011;47273;49.274;8.708;2022-11-11T10:27:13;34.30;;;30.60;;
46339;SDS011;47273;49.274;8.708;2022-11-11T10:29:42;36.38;;;30.45;;
46339;SDS011;47273;49.274;8.708;2022-11-11T10:32:11;32.95;;;29.45;;
46339;SDS011;47273;49.274;8.708;2022-11-11T10:34:44;34.13;;;30.52;;
46339;SDS011;47273;49.274;8.708;2022-11-11T10:37:34;33.85;;;30.55;;
46339;SDS011;47273;49.274;8.708;2022-11-11T10:42:31;32.47;;;29.38;;
46339;SDS011;47273;49.274;8.708;2022-11-11T10:45:00;32.13;;;29.13;;
46339;SDS011;47273;49.274;8.708;2022-11-11T10:50:13;33.25;;;30.00;;
46339;SDS011;47273;49.274;8.708;2022-11-11T10:52:59;30.73;;;27.40;;
46339;SDS011;47273;49.274;8.708;2022-11-11T10:55:51;30.98;;;28.00;;
46339;SDS011;47273;49.274;8.708;2022-11-11T11:01:59;35.75;;;28.98;;
46339;SDS011;47273;49.274;8.708;2022-11-11T11:04:36;31.35;;;28.25;;
46339;SDS011;47273;49.274;8.708;2022-11-11T11:07:14;31.45;;;28.35;;
46339;SDS011;47273;49.274;8.708;2022-11-11T11:09:49;32.50;;;29.13;;
46339;SDS011;47273;49.274;8.708;2022-11-11T11:14:55;31.65;;;28.35;;
46339;SDS011;47273;49.274;8.708;2022-11-11T11:17:37;31.65;;;28.75;;
46339;SDS011;47273;49.274;8.708;2022-11-11T11:20:17;31.33;;;28.33;;
46339;SDS011;47273;49.274;8.708;2022-11-11T11:22:51;30.55;;;27.80;;
46339;SDS011;47273;49.274;8.708;2022-11-11T11:25:23;30.77;;;27.70;;
46339;SDS011;47273;49.274;8.708;2022-11-11T11:27:50;32.47;;;29.17;;
46339;SDS011;47273;49.274;8.708;2022-11-11T11:30:18;33.53;;;29.83;;
46339;SDS011;47273;49.274;8.708;2022-11-11T11:33:06;32.47;;;29.40;;
46339;SDS011;47273;49.274;8.708;2022-11-11T11:37:59;32.72;;;28.58;;
46339;SDS011;47273;49.274;8.708;2022-11-11T11:40:26;31.98;;;28.40;;
46339;SDS011;47273;49.274;8.708;2022-11-11T11:42:52;32.40;;;28.85;;
46339;SDS011;47273;49.274;8.708;2022-11-11T11:45:19;30.88;;;27.75;;
46339;SDS011;47273;49.274;8.708;2022-11-11T11:56:19;30.83;;;27.95;;
46339;SDS011;47273;49.274;8.708;2022-11-11T12:10:41;31.30;;;28.25;;
46339;SDS011;47273;49.274;8.708;2022-11-11T12:21:32;31.23;;;28.30;;
46339;SDS011;47273;49.274;8.708;2022-11-11T12:32:30;31.42;;;28.08;;
46339;SDS011;47273;49.274;8.708;2022-11-11T12:44:06;32.45;;;29.33;;
46339;SDS011;47273;49.274;8.708;2022-11-11T12:49:39;31.05;;;27.85;;
46339;SDS011;47273;49.274;8.708;2022-11-11T12:57:58;30.58;;;27.38;;
46339;SDS011;47273;49.274;8.708;2022-11-11T13:00:27;30.65;;;27.75;;
46339;SDS011;47273;49.274;8.708;2022-11-11T13:14:30;31.33;;;28.10;;
46339;SDS011;47273;49.274;8.708;2022-11-11T13:17:00;32.05;;;28.70;;
46339;SDS011;47273;49.274;8.708;2022-11-11T13:19:32;31.75;;;28.08;;
46339;SDS011;47273;49.274;8.708;2022-11-11T13:24:36;31.58;;;28.58;;
46339;SDS011;47273;49.274;8.708;2022-11-11T13:27:03;30.73;;;27.77;;
46339;SDS011;47273;49.274;8.708;2022-11-11T13:32:45;32.42;;;29.38;;
46339;SDS011;47273;49.274;8.708;2022-11-11T13:35:33;31.17;;;28.08;;
46339;SDS011;47273;49.274;8.708;2022-11-11T13:38:37;30.02;;;27.10;;
46339;SDS011;47273;49.274;8.708;2022-11-11T13:41:36;32.35;;;28.98;;
46339;SDS011;47273;49.274;8.708;2022-11-11T13:44:03;31.77;;;28.67;;
46339;SDS011;47273;49.274;8.708;2022-11-11T13:46:42;33.97;;;29.30;;
46339;SDS011;47273;49.274;8.708;2022-11-11T13:51:57;33.42;;;30.17;;
46339;SDS011;47273;49.274;8.708;2022-11-11T13:57:42;37.20;;;32.42;;
46339;SDS011;47273;49.274;8.708;2022-11-11T13:59:52;34.78;;;31.02;;
46339;SDS011;47273;49.274;8.708;2022-11-11T14:02:31;34.42;;;30.85;;
46339;SDS011;47273;49.274;8.708;2022-11-11T14:12:55;36.50;;;32.58;;
46339;SDS011;47273;49.274;8.708;2022-11-11T14:18:09;34.55;;;31.23;;
46339;SDS011;47273;49.274;8.708;2022-11-11T14:20:41;35.47;;;30.95;;
46339;SDS011;47273;49.274;8.708;2022-11-11T14:34:00;40.60;;;32.63;;
46339;SDS011;47273;49.274;8.708;2022-11-11T14:36:37;36.63;;;32.72;;
46339;SDS011;47273;49.274;8.708;2022-11-11T14:42:01;41.95;;;33.80;;
46339;SDS011;47273;49.274;8.708;2022-11-11T14:52:23;44.63;;;34.78;;
46339;SDS011;47273;49.274;8.708;2022-11-11T15:00:33;41.55;;;34.20;;
46339;SDS011;47273;49.274;8.708;2022-11-11T15:03:19;43.00;;;34.83;;
46339;SDS011;47273;49.274;8.708;2022-11-11T15:11:32;46.97;;;34.50;;
46339;SDS011;47273;49.274;8.708;2022-11-11T15:17:03;42.72;;;36.75;;
46339;SDS011;47273;49.274;8.708;2022-11-11T15:22:44;43.25;;;36.83;;
46339;SDS011;47273;49.274;8.708;2022-11-11T15:39:17;50.90;;;39.42;;
46339;SDS011;47273;49.274;8.708;2022-11-11T15:42:04;48.85;;;38.22;;
46339;SDS011;47273;49.274;8.708;2022-11-11T15:44:30;47.58;;;37.22;;
46339;SDS011;47273;49.274;8.708;2022-11-11T15:46:58;47.90;;;38.22;;
46339;SDS011;47273;49.274;8.708;2022-11-11T15:54:45;54.20;;;39.08;;
46339;SDS011;47273;49.274;8.708;2022-11-11T15:59:53;52.70;;;38.72;;
46339;SDS011;47273;49.274;8.708;2022-11-11T16:02:27;57.60;;;40.05;;
46339;SDS011;47273;49.274;8.708;2022-11-11T16:04:59;58.08;;;39.65;;
46339;SDS011;47273;49.274;8.708;2022-11-11T16:07:40;61.75;;;40.17;;
46339;SDS011;47273;49.274;8.708;2022-11-11T16:16:15;52.05;;;43.38;;
46339;SDS011;47273;49.274;8.708;2022-11-11T16:21:17;59.13;;;39.13;;
46339;SDS011;47273;49.274;8.708;2022-11-11T16:23:46;57.92;;;40.28;;
46339;SDS011;47273;49.274;8.708;2022-11-11T16:26:14;57.95;;;36.47;;
46339;SDS011;47273;49.274;8.708;2022-11-11T16:28:41;59.30;;;38.05;;
46339;SDS011;47273;49.274;8.708;2022-11-11T16:34:00;73.85;;;44.08;;
46339;SDS011;47273;49.274;8.708;2022-11-11T16:36:57;67.40;;;43.95;;
46339;SDS011;47273;49.274;8.708;2022-11-11T16:39:29;61.30;;;42.05;;
46339;SDS011;47273;49.274;8.708;2022-11-11T16:41:56;61.95;;;42.70;;
46339;SDS011;47273;49.274;8.708;2022-11-11T16:46:59;56.88;;;39.33;;
46339;SDS011;47273;49.274;8.708;2022-11-11T16:52:06;55.35;;;38.15;;
46339;SDS011;47273;49.274;8.708;2022-11-11T16:54:39;47.90;;;36.65;;
46339;SDS011;47273;49.274;8.708;2022-11-11T16:57:15;55.75;;;38.28;;
46339;SDS011;47273;49.274;8.708;2022-11-11T16:59:46;54.15;;;37.72;;
46339;SDS011;47273;49.274;8.708;2022-11-11T17:02:16;49.67;;;35.95;;
46339;SDS011;47273;49.274;8.708;2022-11-11T17:04:50;48.25;;;35.80;;
46339;SDS011;47273;49.274;8.708;2022-11-11T17:10:18;48.35;;;34.50;;
46339;SDS011;47273;49.274;8.708;2022-11-11T17:12:45;48.50;;;34.45;;
46339;SDS011;47273;49.274;8.708;2022-11-11T17:15:17;51.08;;;35.13;;
46339;SDS011;47273;49.274;8.708;2022-11-11T17:17:44;49.10;;;36.55;;
46339;SDS011;47273;49.274;8.708;2022-11-11T17:20:12;47.90;;;35.13;;
46339;SDS011;47273;49.274;8.708;2022-11-11T17:22:50;46.42;;;34.60;;
46339;SDS011;47273;49.274;8.708;2022-11-11T17:25:17;47.30;;;36.25;;
46339;SDS011;47273;49.274;8.708;2022-11-11T17:27:43;43.97;;;36.47;;
46339;SDS011;47273;49.274;8.708;2022-11-11T17:30:09;46.95;;;35.72;;
46339;SDS011;47273;49.274;8.708;2022-11-11T17:32:36;46.28;;;35.90;;
46339;SDS011;47273;49.274;8.708;2022-11-11T17:35:02;47.65;;;36.88;;
46339;SDS011;47273;49.274;8.708;2022-11-11T17:37:31;49.47;;;34.38;;
46339;SDS011;47273;49.274;8.708;2022-11-11T17:39:59;46.55;;;35.45;;
46339;SDS011;47273;49.274;8.708;2022-11-11T17:42:26;47.22;;;34.13;;
46339;SDS011;47273;49.274;8.708;2022-11-11T17:44:53;48.97;;;35.97;;
46339;SDS011;47273;49.274;8.708;2022-11-11T17:47:18;48.50;;;35.00;;
46339;SDS011;47273;49.274;8.708;2022-11-11T17:49:44;49.28;;;35.63;;
46339;SDS011;47273;49.274;8.708;2022-11-11T17:52:10;46.25;;;36.15;;
46339;SDS011;47273;49.274;8.708;2022-11-11T17:54:35;45.88;;;35.95;;
46339;SDS011;47273;49.274;8.708;2022-11-11T17:57:07;46.72;;;36.25;;
46339;SDS011;47273;49.274;8.708;2022-11-11T17:59:33;48.92;;;36.10;;
46339;SDS011;47273;49.274;8.708;2022-11-11T18:01:59;54.38;;;35.67;;
46339;SDS011;47273;49.274;8.708;2022-11-11T18:04:26;48.90;;;36.38;;
46339;SDS011;47273;49.274;8.708;2022-11-11T18:06:51;48.00;;;35.55;;
46339;SDS011;47273;49.274;8.708;2022-11-11T18:09:17;50.33;;;34.72;;
46339;SDS011;47273;49.274;8.708;2022-11-11T18:11:43;60.15;;;38.53;;
46339;SDS011;47273;49.274;8.708;2022-11-11T18:14:08;72.28;;;42.95;;
46339;SDS011;47273;49.274;8.708;2022-11-11T18:16:36;67.05;;;40.13;;
46339;SDS011;47273;49.274;8.708;2022-11-11T18:19:02;62.40;;;36.30;;
46339;SDS011;47273;49.274;8.708;2022-11-11T18:21:28;69.38;;;43.53;;
46339;SDS011;47273;49.274;8.708;2022-11-11T18:23:55;69.47;;;43.42;;
46339;SDS011;47273;49.274;8.708;2022-11-11T18:26:22;56.38;;;40.05;;
46339;SDS011;47273;49.274;8.708;2022-11-11T18:28:47;56.55;;;38.65;;
46339;SDS011;47273;49.274;8.708;2022-11-11T18:31:13;49.75;;;36.28;;
46339;SDS011;47273;49.274;8.708;2022-11-11T18:33:40;55.65;;;36.72;;
46339;SDS011;47273;49.274;8.708;2022-11-11T18:36:09;52.35;;;37.65;;
46339;SDS011;47273;49.274;8.708;2022-11-11T18:38:40;54.83;;;37.47;;
46339;SDS011;47273;49.274;8.708;2022-11-11T18:43:37;56.13;;;39.33;;
46339;SDS011;47273;49.274;8.708;2022-11-11T18:46:05;51.13;;;37.50;;
46339;SDS011;47273;49.274;8.708;2022-11-11T18:48:33;52.72;;;37.47;;
46339;SDS011;47273;49.274;8.708;2022-11-11T18:50:59;51.20;;;36.88;;
46339;SDS011;47273;49.274;8.708;2022-11-11T18:53:27;52.50;;;36.42;;
46339;SDS011;47273;49.274;8.708;2022-11-11T18:55:53;49.65;;;36.55;;
46339;SDS011;47273;49.274;8.708;2022-11-11T18:58:19;48.42;;;35.42;;
46339;SDS011;47273;49.274;8.708;2022-11-11T19:00:51;50.97;;;36.15;;
46339;SDS011;47273;49.274;8.708;2022-11-11T19:03:19;49.15;;;35.78;;
46339;SDS011;47273;49.274;8.708;2022-11-11T19:05:58;49.38;;;36.33;;
46339;SDS011;47273;49.274;8.708;2022-11-11T19:08:24;47.42;;;35.17;;
46339;SDS011;47273;49.274;8.708;2022-11-11T19:10:50;49.40;;;33.95;;
46339;SDS011;47273;49.274;8.708;2022-11-11T19:13:15;49.65;;;34.78;;
46339;SDS011;47273;49.274;8.708;2022-11-11T19:15:41;44.45;;;36.50;;
46339;SDS011;47273;49.274;8.708;2022-11-11T19:18:06;47.70;;;36.05;;
46339;SDS011;47273;49.274;8.708;2022-11-11T19:20:32;43.90;;;36.25;;
46339;SDS011;47273;49.274;8.708;2022-11-11T19:22:58;50.45;;;37.75;;
46339;SDS011;47273;49.274;8.708;2022-11-11T19:25:23;44.88;;;36.78;;
46339;SDS011;47273;49.274;8.708;2022-11-11T19:27:51;44.42;;;34.95;;
46339;SDS011;47273;49.274;8.708;2022-11-11T19:30:17;48.08;;;34.85;;
46339;SDS011;47273;49.274;8.708;2022-11-11T19:32:43;50.70;;;39.67;;
46339;SDS011;47273;49.274;8.708;2022-11-11T19:35:09;52.15;;;37.45;;
46339;SDS011;47273;49.274;8.708;2022-11-11T19:37:35;46.60;;;37.03;;
46339;SDS011;47273;49.274;8.708;2022-11-11T19:40:01;45.83;;;35.03;;
46339;SDS011;47273;49.274;8.708;2022-11-11T19:42:27;43.30;;;33.83;;
46339;SDS011;47273;49.274;8.708;2022-11-11T19:44:52;44.83;;;34.95;;
46339;SDS011;47273;49.274;8.708;2022-11-11T19:47:18;43.08;;;34.53;;
46339;SDS011;47273;49.274;8.708;2022-11-11T19:49:43;42.80;;;34.67;;
46339;SDS011;47273;49.274;8.708;2022-11-11T19:52:09;48.85;;;34.85;;
46339;SDS011;47273;49.274;8.708;2022-11-11T19:54:35;45.85;;;35.08;;
46339;SDS011;47273;49.274;8.708;2022-11-11T19:57:00;45.20;;;33.38;;
46339;SDS011;47273;49.274;8.708;2022-11-11T19:59:26;46.70;;;34.17;;
46339;SDS011;47273;49.274;8.708;2022-11-11T20:01:51;54.40;;;38.22;;
46339;SDS011;47273;49.274;8.708;2022-11-11T20:04:17;44.90;;;35.10;;
46339;SDS011;47273;49.274;8.708;2022-11-11T20:06:43;40.60;;;34.15;;
46339;SDS011;47273;49.274;8.708;2022-11-11T20:09:08;46.78;;;36.60;;
46339;SDS011;47273;49.274;8.708;2022-11-11T20:11:34;45.17;;;35.58;;
46339;SDS011;47273;49.274;8.708;2022-11-11T20:14:04;45.53;;;36.03;;
46339;SDS011;47273;49.274;8.708;2022-11-11T20:16:30;47.50;;;36.40;;
46339;SDS011;47273;49.274;8.708;2022-11-11T20:18:56;43.35;;;35.75;;
46339;SDS011;47273;49.274;8.708;2022-11-11T20:21:22;49.88;;;37.85;;
46339;SDS011;47273;49.274;8.708;2022-11-11T20:23:49;47.10;;;36.53;;
46339;SDS011;47273;49.274;8.708;2022-11-11T20:26:15;46.25;;;35.55;;
46339;SDS011;47273;49.274;8.708;2022-11-11T20:28:41;43.80;;;34.22;;
46339;SDS011;47273;49.274;8.708;2022-11-11T20:31:08;44.88;;;35.20;;
46339;SDS011;47273;49.274;8.708;2022-11-11T20:33:35;51.33;;;36.35;;
46339;SDS011;47273;49.274;8.708;2022-11-11T20:36:01;48.80;;;35.97;;
46339;SDS011;47273;49.274;8.708;2022-11-11T20:38:28;53.20;;;36.53;;
46339;SDS011;47273;49.274;8.708;2022-11-11T20:41:01;45.70;;;34.45;;
46339;SDS011;47273;49.274;8.708;2022-11-11T20:43:30;49.85;;;37.20;;
46339;SDS011;47273;49.274;8.708;2022-11-11T20:46:03;48.08;;;34.78;;
46339;SDS011;47273;49.274;8.708;2022-11-11T20:48:30;46.97;;;34.53;;
46339;SDS011;47273;49.274;8.708;2022-11-11T20:51:07;47.17;;;35.30;;
46339;SDS011;47273;49.274;8.708;2022-11-11T20:53:37;49.72;;;36.03;;
46339;SDS011;47273;49.274;8.708;2022-11-11T20:56:04;47.20;;;35.45;;
46339;SDS011;47273;49.274;8.708;2022-11-11T20:58:32;45.63;;;35.08;;
46339;SDS011;47273;49.274;8.708;2022-11-11T21:01:08;41.85;;;33.55;;
46339;SDS011;47273;49.274;8.708;2022-11-11T21:03:35;45.55;;;35.30;;
46339;SDS011;47273;49.274;8.708;2022-11-11T21:06:20;45.00;;;34.90;;
46339;SDS011;47273;49.274;8.708;2022-11-11T21:08:50;44.70;;;34.08;;
46339;SDS011;47273;49.274;8.708;2022-11-11T21:11:16;49.85;;;35.40;;
46339;SDS011;47273;49.274;8.708;2022-11-11T21:13:43;40.83;;;33.83;;
46339;SDS011;47273;49.274;8.708;2022-11-11T21:16:28;42.70;;;34.58;;
46339;SDS011;47273;49.274;8.708;2022-11-11T21:18:55;40.83;;;33.53;;
46339;SDS011;47273;49.274;8.708;2022-11-11T21:21:30;46.05;;;35.08;;
46339;SDS011;47273;49.274;8.708;2022-11-11T21:24:00;45.58;;;35.75;;
46339;SDS011;47273;49.274;8.708;2022-11-11T21:26:30;57.90;;;41.30;;
46339;SDS011;47273;49.274;8.708;2022-11-11T21:28:58;51.60;;;38.35;;
